sensor_id;sensor_type;location;lat;lon;timestamp;temperature;humidity
38936;DHT22;66589;47.458;9.644;2023-04-24T03:02:04;11.10;96.00
38936;DHT22;66589;47.458;9.644;2023-04-24T03:04:31;11.10;96.30
38936;DHT22;66589;47.458;9.644;2023-04-24T03:06:57;11.10;96.40
38936;DHT22;66589;47.458;9.644;2023-04-24T03:09:23;11.00;96.60
38936;DHT22;66589;47.458;9.644;2023-04-24T03:11:49;11.00;96.40
38936;DHT22;66589;47.458;9.644;2023-04-24T03:14:15;11.00;96.30
38936;DHT22;66589;47.458;9.644;2023-04-24T03:16:41;11.00;95.40
38936;DHT22;66589;47.458;9.644;2023-04-24T03:19:07;11.00;95.30
38936;DHT22;66589;47.458;9.644;2023-04-24T03:21:33;11.00;95.00
38936;DHT22;66589;47.458;9.644;2023-04-24T03:23:58;11.00;94.40
38936;DHT22;66589;47.458;9.644;2023-04-24T03:26:24;11.00;94.50
38936;DHT22;66589;47.458;9.644;2023-04-24T03:28:50;11.00;94.00
38936;DHT22;66589;47.458;9.644;2023-04-24T03:31:16;11.00;93.90
38936;DHT22;66589;47.458;9.644;2023-04-24T03:33:42;11.00;93.50
38936;DHT22;66589;47.458;9.644;2023-04-24T03:36:08;11.10;93.30
38936;DHT22;66589;47.458;9.644;2023-04-24T03:38:33;11.10;93.00
38936;DHT22;66589;47.458;9.644;2023-04-24T03:40:59;11.00;92.60
38936;DHT22;66589;47.458;9.644;2023-04-24T03:43:25;11.00;92.40
38936;DHT22;66589;47.458;9.644;2023-04-24T03:45:52;11.00;92.60
38936;DHT22;66589;47.458;9.644;2023-04-24T03:48:18;11.10;92.30
38936;DHT22;66589;47.458;9.644;2023-04-24T03:50:44;11.00;91.60
38936;DHT22;66589;47.458;9.644;2023-04-24T03:53:09;11.10;91.60
38936;DHT22;66589;47.458;9.644;2023-04-24T03:55:35;11.10;91.60
38936;DHT22;66589;47.458;9.644;2023-04-24T03:58:01;11.10;91.60
38936;DHT22;66589;47.458;9.644;2023-04-24T04:00:27;11.20;91.00
38936;DHT22;66589;47.458;9.644;2023-04-24T04:02:53;11.10;91.30
38936;DHT22;66589;47.458;9.644;2023-04-24T04:05:18;11.10;90.90
38936;DHT22;66589;47.458;9.644;2023-04-24T04:07:44;11.10;90.40
38936;DHT22;66589;47.458;9.644;2023-04-24T04:10:10;11.00;90.90
38936;DHT22;66589;47.458;9.644;2023-04-24T04:12:36;11.00;90.70
38936;DHT22;66589;47.458;9.644;2023-04-24T04:15:02;11.00;91.10
38936;DHT22;66589;47.458;9.644;2023-04-24T04:17:27;11.00;91.30
38936;DHT22;66589;47.458;9.644;2023-04-24T04:19:53;11.00;90.90
38936;DHT22;66589;47.458;9.644;2023-04-24T04:22:19;11.00;90.90
38936;DHT22;66589;47.458;9.644;2023-04-24T04:24:44;11.10;91.00
38936;DHT22;66589;47.458;9.644;2023-04-24T04:27:11;11.00;90.70
38936;DHT22;66589;47.458;9.644;2023-04-24T04:29:37;11.00;90.40
38936;DHT22;66589;47.458;9.644;2023-04-24T04:32:04;11.10;90.20
38936;DHT22;66589;47.458;9.644;2023-04-24T04:34:29;11.10;90.00
38936;DHT22;66589;47.458;9.644;2023-04-24T04:36:57;11.10;88.90
38936;DHT22;66589;47.458;9.644;2023-04-24T04:39:25;11.10;88.80
38936;DHT22;66589;47.458;9.644;2023-04-24T04:41:51;11.10;89.20
38936;DHT22;66589;47.458;9.644;2023-04-24T04:44:16;11.20;88.10
38936;DHT22;66589;47.458;9.644;2023-04-24T04:46:42;11.20;87.90
38936;DHT22;66589;47.458;9.644;2023-04-24T04:49:08;11.20;87.80
38936;DHT22;66589;47.458;9.644;2023-04-24T04:51:34;11.20;86.40
38936;DHT22;66589;47.458;9.644;2023-04-24T04:54:00;11.20;86.80
38936;DHT22;66589;47.458;9.644;2023-04-24T04:56:26;11.20;87.30
38936;DHT22;66589;47.458;9.644;2023-04-24T04:58:51;11.30;86.80
38936;DHT22;66589;47.458;9.644;2023-04-24T05:01:17;11.30;87.10
38936;DHT22;66589;47.458;9.644;2023-04-24T05:03:43;11.30;87.10
38936;DHT22;66589;47.458;9.644;2023-04-24T05:06:08;11.30;87.30
38936;DHT22;66589;47.458;9.644;2023-04-24T05:08:34;11.40;87.80
38936;DHT22;66589;47.458;9.644;2023-04-24T05:11:00;11.40;87.60
38936;DHT22;66589;47.458;9.644;2023-04-24T05:13:26;11.30;87.50
38936;DHT22;66589;47.458;9.644;2023-04-24T05:15:51;11.30;87.50
38936;DHT22;66589;47.458;9.644;2023-04-24T05:18:17;11.20;88.20
38936;DHT22;66589;47.458;9.644;2023-04-24T05:20:43;11.20;88.30
38936;DHT22;66589;47.458;9.644;2023-04-24T05:23:09;11.20;88.20
38936;DHT22;66589;47.458;9.644;2023-04-24T05:25:35;11.20;88.10
38936;DHT22;66589;47.458;9.644;2023-04-24T05:28:02;11.20;88.40
38936;DHT22;66589;47.458;9.644;2023-04-24T05:30:28;11.20;87.40
38936;DHT22;66589;47.458;9.644;2023-04-24T05:32:54;11.30;88.10
38936;DHT22;66589;47.458;9.644;2023-04-24T05:35:19;11.30;87.40
38936;DHT22;66589;47.458;9.644;2023-04-24T05:37:46;11.40;86.80
38936;DHT22;66589;47.458;9.644;2023-04-24T05:40:11;11.30;86.80
38936;DHT22;66589;47.458;9.644;2023-04-24T05:42:37;11.30;87.20
38936;DHT22;66589;47.458;9.644;2023-04-24T05:45:03;11.20;88.20
38936;DHT22;66589;47.458;9.644;2023-04-24T05:47:29;11.20;88.40
38936;DHT22;66589;47.458;9.644;2023-04-24T05:49:55;11.20;88.40
38936;DHT22;66589;47.458;9.644;2023-04-24T05:52:21;11.20;87.40
38936;DHT22;66589;47.458;9.644;2023-04-24T05:54:46;11.30;87.40
38936;DHT22;66589;47.458;9.644;2023-04-24T05:57:12;11.30;88.30
38936;DHT22;66589;47.458;9.644;2023-04-24T05:59:38;11.40;88.70
38936;DHT22;66589;47.458;9.644;2023-04-24T06:02:04;11.50;89.10
38936;DHT22;66589;47.458;9.644;2023-04-24T06:04:30;11.50;88.00
38936;DHT22;66589;47.458;9.644;2023-04-24T06:06:55;11.70;88.50
38936;DHT22;66589;47.458;9.644;2023-04-24T06:09:25;11.70;87.60
38936;DHT22;66589;47.458;9.644;2023-04-24T06:11:50;11.80;86.80
38936;DHT22;66589;47.458;9.644;2023-04-24T06:14:19;11.90;87.70
38936;DHT22;66589;47.458;9.644;2023-04-24T06:16:45;12.00;87.30
38936;DHT22;66589;47.458;9.644;2023-04-24T06:19:11;12.00;87.20
38936;DHT22;66589;47.458;9.644;2023-04-24T06:21:37;12.10;87.40
38936;DHT22;66589;47.458;9.644;2023-04-24T06:24:03;12.20;86.30
38936;DHT22;66589;47.458;9.644;2023-04-24T06:26:29;12.20;85.40
38936;DHT22;66589;47.458;9.644;2023-04-24T06:28:55;12.20;85.50
38936;DHT22;66589;47.458;9.644;2023-04-24T06:31:21;12.10;83.40
38936;DHT22;66589;47.458;9.644;2023-04-24T06:33:48;12.10;84.50
38936;DHT22;66589;47.458;9.644;2023-04-24T06:36:14;12.10;84.10
38936;DHT22;66589;47.458;9.644;2023-04-24T06:38:40;12.10;83.20
38936;DHT22;66589;47.458;9.644;2023-04-24T06:41:05;12.10;83.10
38936;DHT22;66589;47.458;9.644;2023-04-24T06:43:31;12.10;83.60
38936;DHT22;66589;47.458;9.644;2023-04-24T06:45:58;12.10;82.70
38936;DHT22;66589;47.458;9.644;2023-04-24T06:48:24;12.00;81.80
38936;DHT22;66589;47.458;9.644;2023-04-24T06:50:50;12.10;82.30
38936;DHT22;66589;47.458;9.644;2023-04-24T06:53:16;12.10;82.70
38936;DHT22;66589;47.458;9.644;2023-04-24T06:55:42;12.00;82.40
38936;DHT22;66589;47.458;9.644;2023-04-24T06:58:11;12.00;82.60
38936;DHT22;66589;47.458;9.644;2023-04-24T07:00:38;12.10;82.60
38936;DHT22;66589;47.458;9.644;2023-04-24T07:03:04;12.10;82.60
38936;DHT22;66589;47.458;9.644;2023-04-24T07:05:32;12.20;81.90
38936;DHT22;66589;47.458;9.644;2023-04-24T07:08:00;12.20;80.80
38936;DHT22;66589;47.458;9.644;2023-04-24T07:10:27;12.20;81.40
38936;DHT22;66589;47.458;9.644;2023-04-24T07:12:54;12.40;80.00
38936;DHT22;66589;47.458;9.644;2023-04-24T07:15:21;12.50;81.40
38936;DHT22;66589;47.458;9.644;2023-04-24T07:17:47;12.60;79.60
38936;DHT22;66589;47.458;9.644;2023-04-24T07:20:13;12.80;80.50
38936;DHT22;66589;47.458;9.644;2023-04-24T07:22:40;12.80;81.50
38936;DHT22;66589;47.458;9.644;2023-04-24T07:25:06;12.70;82.20
38936;DHT22;66589;47.458;9.644;2023-04-24T07:27:32;12.80;82.70
38936;DHT22;66589;47.458;9.644;2023-04-24T07:29:58;13.00;82.80
38936;DHT22;66589;47.458;9.644;2023-04-24T07:32:24;12.80;84.00
38936;DHT22;66589;47.458;9.644;2023-04-24T07:34:49;13.00;84.00
38936;DHT22;66589;47.458;9.644;2023-04-24T07:37:15;13.10;84.30
38936;DHT22;66589;47.458;9.644;2023-04-24T07:39:41;12.90;83.70
38936;DHT22;66589;47.458;9.644;2023-04-24T07:42:06;12.60;85.10
38936;DHT22;66589;47.458;9.644;2023-04-24T07:44:32;12.70;84.90
38936;DHT22;66589;47.458;9.644;2023-04-24T07:46:58;12.50;86.40
38936;DHT22;66589;47.458;9.644;2023-04-24T07:49:23;12.60;87.10
38936;DHT22;66589;47.458;9.644;2023-04-24T07:51:49;12.50;88.20
38936;DHT22;66589;47.458;9.644;2023-04-24T07:54:15;12.70;85.90
38936;DHT22;66589;47.458;9.644;2023-04-24T07:56:43;13.20;85.20
38936;DHT22;66589;47.458;9.644;2023-04-24T07:59:09;13.60;85.50
38936;DHT22;66589;47.458;9.644;2023-04-24T08:01:36;14.20;82.90
38936;DHT22;66589;47.458;9.644;2023-04-24T08:04:01;14.50;81.70
38936;DHT22;66589;47.458;9.644;2023-04-24T08:06:27;14.90;80.90
38936;DHT22;66589;47.458;9.644;2023-04-24T08:08:56;15.10;79.10
38936;DHT22;66589;47.458;9.644;2023-04-24T08:11:22;16.30;75.40
38936;DHT22;66589;47.458;9.644;2023-04-24T08:13:47;17.10;71.40
38936;DHT22;66589;47.458;9.644;2023-04-24T08:16:13;17.50;71.10
38936;DHT22;66589;47.458;9.644;2023-04-24T08:18:39;19.70;67.70
38936;DHT22;66589;47.458;9.644;2023-04-24T08:21:05;21.90;60.40
38936;DHT22;66589;47.458;9.644;2023-04-24T08:23:30;22.90;55.70
38936;DHT22;66589;47.458;9.644;2023-04-24T08:25:56;22.30;52.50
38936;DHT22;66589;47.458;9.644;2023-04-24T08:28:22;21.10;54.60
38936;DHT22;66589;47.458;9.644;2023-04-24T08:30:48;20.20;57.50
38936;DHT22;66589;47.458;9.644;2023-04-24T08:33:20;19.50;60.50
38936;DHT22;66589;47.458;9.644;2023-04-24T08:35:45;18.80;60.40
38936;DHT22;66589;47.458;9.644;2023-04-24T08:38:11;18.00;61.70
38936;DHT22;66589;47.458;9.644;2023-04-24T08:40:37;17.30;64.00
38936;DHT22;66589;47.458;9.644;2023-04-24T08:43:03;16.50;64.80
38936;DHT22;66589;47.458;9.644;2023-04-24T08:45:29;15.90;66.20
38936;DHT22;66589;47.458;9.644;2023-04-24T08:47:55;15.50;68.00
38936;DHT22;66589;47.458;9.644;2023-04-24T08:50:23;15.20;72.10
38936;DHT22;66589;47.458;9.644;2023-04-24T08:52:52;15.10;74.30
38936;DHT22;66589;47.458;9.644;2023-04-24T08:55:23;15.00;71.20
38936;DHT22;66589;47.458;9.644;2023-04-24T08:57:51;15.10;72.00
38936;DHT22;66589;47.458;9.644;2023-04-24T09:00:19;15.10;74.60
38936;DHT22;66589;47.458;9.644;2023-04-24T09:02:47;15.00;72.60
38936;DHT22;66589;47.458;9.644;2023-04-24T09:05:14;15.00;75.40
38936;DHT22;66589;47.458;9.644;2023-04-24T09:07:45;14.90;75.20
38936;DHT22;66589;47.458;9.644;2023-04-24T09:10:11;14.70;75.80
38936;DHT22;66589;47.458;9.644;2023-04-24T09:12:38;14.30;76.80
38936;DHT22;66589;47.458;9.644;2023-04-24T09:15:04;14.20;78.40
38936;DHT22;66589;47.458;9.644;2023-04-24T09:17:31;13.90;72.30
38936;DHT22;66589;47.458;9.644;2023-04-24T09:19:56;13.40;73.00
38936;DHT22;66589;47.458;9.644;2023-04-24T09:22:22;13.10;75.40
38936;DHT22;66589;47.458;9.644;2023-04-24T09:24:48;14.10;75.20
38936;DHT22;66589;47.458;9.644;2023-04-24T09:27:24;16.00;71.50
38936;DHT22;66589;47.458;9.644;2023-04-24T09:29:54;19.20;63.20
38936;DHT22;66589;47.458;9.644;2023-04-24T09:32:22;18.40;59.70
38936;DHT22;66589;47.458;9.644;2023-04-24T09:34:48;17.80;62.70
38936;DHT22;66589;47.458;9.644;2023-04-24T09:37:29;16.80;64.20
38936;DHT22;66589;47.458;9.644;2023-04-24T09:40:09;15.70;66.40
38936;DHT22;66589;47.458;9.644;2023-04-24T09:42:37;14.90;69.80
38936;DHT22;66589;47.458;9.644;2023-04-24T09:45:03;14.50;71.40
38936;DHT22;66589;47.458;9.644;2023-04-24T09:47:36;14.20;71.90
38936;DHT22;66589;47.458;9.644;2023-04-24T09:50:09;13.80;71.50
38936;DHT22;66589;47.458;9.644;2023-04-24T09:52:35;13.40;75.20
38936;DHT22;66589;47.458;9.644;2023-04-24T09:55:01;13.20;75.50
38936;DHT22;66589;47.458;9.644;2023-04-24T09:57:26;13.10;76.50
38936;DHT22;66589;47.458;9.644;2023-04-24T09:59:53;13.20;76.50
38936;DHT22;66589;47.458;9.644;2023-04-24T10:02:20;13.20;76.30
38936;DHT22;66589;47.458;9.644;2023-04-24T10:04:56;13.40;76.10
38936;DHT22;66589;47.458;9.644;2023-04-24T10:07:22;13.50;76.20
38936;DHT22;66589;47.458;9.644;2023-04-24T10:09:51;13.80;74.50
38936;DHT22;66589;47.458;9.644;2023-04-24T10:12:17;14.10;74.40
38936;DHT22;66589;47.458;9.644;2023-04-24T10:14:45;14.50;73.30
38936;DHT22;66589;47.458;9.644;2023-04-24T10:17:12;14.80;73.30
38936;DHT22;66589;47.458;9.644;2023-04-24T10:19:38;14.90;70.90
38936;DHT22;66589;47.458;9.644;2023-04-24T10:22:06;15.10;70.60
38936;DHT22;66589;47.458;9.644;2023-04-24T10:24:33;15.30;71.80
38936;DHT22;66589;47.458;9.644;2023-04-24T10:27:01;15.70;70.60
38936;DHT22;66589;47.458;9.644;2023-04-24T10:29:27;16.10;66.90
38936;DHT22;66589;47.458;9.644;2023-04-24T10:31:54;16.70;64.70
38936;DHT22;66589;47.458;9.644;2023-04-24T10:34:21;17.10;61.50
38936;DHT22;66589;47.458;9.644;2023-04-24T10:36:51;17.10;62.90
38936;DHT22;66589;47.458;9.644;2023-04-24T10:39:17;17.00;65.60
38936;DHT22;66589;47.458;9.644;2023-04-24T10:41:44;16.90;63.80
38936;DHT22;66589;47.458;9.644;2023-04-24T10:44:14;16.70;64.30
38936;DHT22;66589;47.458;9.644;2023-04-24T10:46:45;16.30;64.60
38936;DHT22;66589;47.458;9.644;2023-04-24T10:49:11;16.00;66.50
38936;DHT22;66589;47.458;9.644;2023-04-24T10:54:36;15.80;65.20
38936;DHT22;66589;47.458;9.644;2023-04-24T10:59:44;15.80;65.00
38936;DHT22;66589;47.458;9.644;2023-04-24T11:02:10;15.80;66.20
38936;DHT22;66589;47.458;9.644;2023-04-24T11:04:36;15.70;63.00
38936;DHT22;66589;47.458;9.644;2023-04-24T11:07:03;15.80;64.30
38936;DHT22;66589;47.458;9.644;2023-04-24T11:09:32;15.90;63.80
38936;DHT22;66589;47.458;9.644;2023-04-24T11:17:38;17.70;63.90
38936;DHT22;66589;47.458;9.644;2023-04-24T11:20:09;18.20;61.50
38936;DHT22;66589;47.458;9.644;2023-04-24T11:22:36;18.50;59.50
38936;DHT22;66589;47.458;9.644;2023-04-24T11:25:03;18.40;56.20
38936;DHT22;66589;47.458;9.644;2023-04-24T11:27:31;18.70;58.90
38936;DHT22;66589;47.458;9.644;2023-04-24T11:32:40;18.60;60.00
38936;DHT22;66589;47.458;9.644;2023-04-24T11:35:17;18.20;59.80
38936;DHT22;66589;47.458;9.644;2023-04-24T11:37:47;17.80;58.40
38936;DHT22;66589;47.458;9.644;2023-04-24T11:40:18;17.70;60.90
38936;DHT22;66589;47.458;9.644;2023-04-24T11:42:49;17.70;60.30
38936;DHT22;66589;47.458;9.644;2023-04-24T11:45:17;17.80;59.10
38936;DHT22;66589;47.458;9.644;2023-04-24T11:47:44;18.10;60.10
38936;DHT22;66589;47.458;9.644;2023-04-24T11:50:14;18.10;59.10
38936;DHT22;66589;47.458;9.644;2023-04-24T11:52:42;18.00;57.90
38936;DHT22;66589;47.458;9.644;2023-04-24T11:57:46;18.00;59.60
38936;DHT22;66589;47.458;9.644;2023-04-24T12:00:19;17.70;56.80
38936;DHT22;66589;47.458;9.644;2023-04-24T12:02:46;17.30;60.20
38936;DHT22;66589;47.458;9.644;2023-04-24T12:05:25;16.90;60.90
38936;DHT22;66589;47.458;9.644;2023-04-24T12:07:51;16.60;61.50
38936;DHT22;66589;47.458;9.644;2023-04-24T12:10:25;16.30;60.60
38936;DHT22;66589;47.458;9.644;2023-04-24T12:12:51;16.30;61.90
38936;DHT22;66589;47.458;9.644;2023-04-24T12:15:19;16.60;62.60
38936;DHT22;66589;47.458;9.644;2023-04-24T12:17:45;16.90;61.10
38936;DHT22;66589;47.458;9.644;2023-04-24T12:20:11;17.50;58.80
38936;DHT22;66589;47.458;9.644;2023-04-24T12:25:17;18.70;60.20
38936;DHT22;66589;47.458;9.644;2023-04-24T12:27:44;18.90;60.20
38936;DHT22;66589;47.458;9.644;2023-04-24T12:30:14;19.10;54.40
38936;DHT22;66589;47.458;9.644;2023-04-24T12:32:44;19.10;56.30
38936;DHT22;66589;47.458;9.644;2023-04-24T12:35:11;18.90;55.00
38936;DHT22;66589;47.458;9.644;2023-04-24T12:37:36;18.60;55.90
38936;DHT22;66589;47.458;9.644;2023-04-24T12:40:10;18.30;55.60
38936;DHT22;66589;47.458;9.644;2023-04-24T12:42:45;18.10;56.10
38936;DHT22;66589;47.458;9.644;2023-04-24T12:45:12;17.80;55.70
38936;DHT22;66589;47.458;9.644;2023-04-24T12:47:39;17.60;57.50
38936;DHT22;66589;47.458;9.644;2023-04-24T12:50:06;17.60;58.70
38936;DHT22;66589;47.458;9.644;2023-04-24T12:52:32;17.40;57.90
38936;DHT22;66589;47.458;9.644;2023-04-24T12:54:59;17.30;57.80
38936;DHT22;66589;47.458;9.644;2023-04-24T12:57:29;16.90;59.70
38936;DHT22;66589;47.458;9.644;2023-04-24T12:59:56;16.60;62.00
38936;DHT22;66589;47.458;9.644;2023-04-24T13:02:27;16.60;62.10
38936;DHT22;66589;47.458;9.644;2023-04-24T13:04:53;16.50;62.40
38936;DHT22;66589;47.458;9.644;2023-04-24T13:07:19;16.50;63.90
38936;DHT22;66589;47.458;9.644;2023-04-24T13:09:47;16.50;62.40
38936;DHT22;66589;47.458;9.644;2023-04-24T13:12:13;16.60;62.40
38936;DHT22;66589;47.458;9.644;2023-04-24T13:14:39;16.70;62.00
38936;DHT22;66589;47.458;9.644;2023-04-24T13:17:05;17.20;63.10
38936;DHT22;66589;47.458;9.644;2023-04-24T13:19:36;17.60;61.00
38936;DHT22;66589;47.458;9.644;2023-04-24T13:22:02;18.10;57.40
38936;DHT22;66589;47.458;9.644;2023-04-24T13:24:27;18.40;56.30
38936;DHT22;66589;47.458;9.644;2023-04-24T13:26:56;18.50;57.80
38936;DHT22;66589;47.458;9.644;2023-04-24T13:29:23;18.60;55.80
38936;DHT22;66589;47.458;9.644;2023-04-24T13:31:50;18.70;56.70
38936;DHT22;66589;47.458;9.644;2023-04-24T13:34:17;18.70;55.60
38936;DHT22;66589;47.458;9.644;2023-04-24T13:36:43;18.70;55.10
38936;DHT22;66589;47.458;9.644;2023-04-24T13:39:09;18.50;55.10
38936;DHT22;66589;47.458;9.644;2023-04-24T13:41:36;18.30;54.50
38936;DHT22;66589;47.458;9.644;2023-04-24T13:44:02;18.00;53.60
38936;DHT22;66589;47.458;9.644;2023-04-24T13:46:28;17.70;55.80
38936;DHT22;66589;47.458;9.644;2023-04-24T13:48:54;17.10;58.80
38936;DHT22;66589;47.458;9.644;2023-04-24T13:51:20;16.70;61.60
38936;DHT22;66589;47.458;9.644;2023-04-24T13:53:45;16.50;62.10
38936;DHT22;66589;47.458;9.644;2023-04-24T13:56:11;16.30;63.70
38936;DHT22;66589;47.458;9.644;2023-04-24T13:58:38;16.20;66.50
38936;DHT22;66589;47.458;9.644;2023-04-24T14:01:04;16.30;66.20
38936;DHT22;66589;47.458;9.644;2023-04-24T14:03:30;16.40;64.70
38936;DHT22;66589;47.458;9.644;2023-04-24T14:05:56;16.50;63.20
38936;DHT22;66589;47.458;9.644;2023-04-24T14:08:22;16.40;63.00
38936;DHT22;66589;47.458;9.644;2023-04-24T14:10:47;16.40;62.60
38936;DHT22;66589;47.458;9.644;2023-04-24T14:13:13;16.50;62.40
38936;DHT22;66589;47.458;9.644;2023-04-24T14:15:39;16.40;64.00
38936;DHT22;66589;47.458;9.644;2023-04-24T14:18:05;16.50;64.30
38936;DHT22;66589;47.458;9.644;2023-04-24T14:20:30;16.50;63.30
38936;DHT22;66589;47.458;9.644;2023-04-24T14:22:56;16.30;63.70
38936;DHT22;66589;47.458;9.644;2023-04-24T14:25:24;16.10;63.90
38936;DHT22;66589;47.458;9.644;2023-04-24T14:27:50;16.10;63.40
38936;DHT22;66589;47.458;9.644;2023-04-24T14:30:17;16.30;63.00
38936;DHT22;66589;47.458;9.644;2023-04-24T14:32:43;16.40;69.20
38936;DHT22;66589;47.458;9.644;2023-04-24T14:35:09;16.80;65.00
38936;DHT22;66589;47.458;9.644;2023-04-24T14:37:35;17.00;63.20
38936;DHT22;66589;47.458;9.644;2023-04-24T14:40:01;17.30;64.20
38936;DHT22;66589;47.458;9.644;2023-04-24T14:42:27;17.50;63.40
38936;DHT22;66589;47.458;9.644;2023-04-24T14:44:54;17.50;59.00
38936;DHT22;66589;47.458;9.644;2023-04-24T14:47:20;17.50;60.70
38936;DHT22;66589;47.458;9.644;2023-04-24T14:49:49;17.40;60.10
38936;DHT22;66589;47.458;9.644;2023-04-24T14:52:14;17.20;60.10
38936;DHT22;66589;47.458;9.644;2023-04-24T14:54:41;16.80;60.00
38936;DHT22;66589;47.458;9.644;2023-04-24T14:57:07;16.40;60.40
38936;DHT22;66589;47.458;9.644;2023-04-24T14:59:33;16.20;61.30
38936;DHT22;66589;47.458;9.644;2023-04-24T15:01:58;16.00;63.60
38936;DHT22;66589;47.458;9.644;2023-04-24T15:04:24;16.20;62.70
38936;DHT22;66589;47.458;9.644;2023-04-24T15:06:51;16.20;65.10
38936;DHT22;66589;47.458;9.644;2023-04-24T15:09:22;16.20;64.40
38936;DHT22;66589;47.458;9.644;2023-04-24T15:11:48;16.10;64.30
38936;DHT22;66589;47.458;9.644;2023-04-24T15:14:15;16.10;63.80
38936;DHT22;66589;47.458;9.644;2023-04-24T15:16:40;16.00;64.30
38936;DHT22;66589;47.458;9.644;2023-04-24T15:19:06;15.90;63.90
38936;DHT22;66589;47.458;9.644;2023-04-24T15:21:32;15.70;64.60
38936;DHT22;66589;47.458;9.644;2023-04-24T15:23:58;15.60;64.40
38936;DHT22;66589;47.458;9.644;2023-04-24T15:26:24;15.50;65.40
38936;DHT22;66589;47.458;9.644;2023-04-24T15:28:51;15.60;66.10
38936;DHT22;66589;47.458;9.644;2023-04-24T15:31:17;15.50;67.20
38936;DHT22;66589;47.458;9.644;2023-04-24T15:33:43;15.50;68.20
38936;DHT22;66589;47.458;9.644;2023-04-24T15:36:09;15.50;70.40
38936;DHT22;66589;47.458;9.644;2023-04-24T15:38:36;15.50;69.70
38936;DHT22;66589;47.458;9.644;2023-04-24T15:41:02;15.40;67.50
38936;DHT22;66589;47.458;9.644;2023-04-24T15:43:28;15.20;68.10
38936;DHT22;66589;47.458;9.644;2023-04-24T15:45:59;15.10;68.60
38936;DHT22;66589;47.458;9.644;2023-04-24T15:48:25;14.90;68.00
38936;DHT22;66589;47.458;9.644;2023-04-24T15:50:50;14.90;68.20
38936;DHT22;66589;47.458;9.644;2023-04-24T15:53:16;14.80;69.10
38936;DHT22;66589;47.458;9.644;2023-04-24T15:55:55;14.80;74.30
38936;DHT22;66589;47.458;9.644;2023-04-24T15:58:22;14.80;69.80
38936;DHT22;66589;47.458;9.644;2023-04-24T16:00:48;14.60;72.30
38936;DHT22;66589;47.458;9.644;2023-04-24T16:03:14;14.30;74.80
38936;DHT22;66589;47.458;9.644;2023-04-24T16:05:40;14.00;73.80
38936;DHT22;66589;47.458;9.644;2023-04-24T16:08:05;13.80;78.20
38936;DHT22;66589;47.458;9.644;2023-04-24T16:10:31;13.70;80.50
38936;DHT22;66589;47.458;9.644;2023-04-24T16:12:58;13.50;77.90
38936;DHT22;66589;47.458;9.644;2023-04-24T16:15:29;13.40;78.30
38936;DHT22;66589;47.458;9.644;2023-04-24T16:17:55;13.40;78.10
38936;DHT22;66589;47.458;9.644;2023-04-24T16:20:21;13.50;78.30
38936;DHT22;66589;47.458;9.644;2023-04-24T16:22:47;13.80;76.30
38936;DHT22;66589;47.458;9.644;2023-04-24T16:25:13;13.90;76.50
38936;DHT22;66589;47.458;9.644;2023-04-24T16:27:38;14.10;78.60
38936;DHT22;66589;47.458;9.644;2023-04-24T16:30:05;14.40;80.20
38936;DHT22;66589;47.458;9.644;2023-04-24T16:32:30;14.70;76.70
38936;DHT22;66589;47.458;9.644;2023-04-24T16:34:56;14.80;76.00
38936;DHT22;66589;47.458;9.644;2023-04-24T16:37:22;14.80;73.90
38936;DHT22;66589;47.458;9.644;2023-04-24T16:39:48;14.80;74.20
38936;DHT22;66589;47.458;9.644;2023-04-24T16:42:14;14.80;74.10
38936;DHT22;66589;47.458;9.644;2023-04-24T16:44:41;14.80;73.40
38936;DHT22;66589;47.458;9.644;2023-04-24T16:47:08;14.70;73.90
38936;DHT22;66589;47.458;9.644;2023-04-24T16:49:35;14.60;73.10
38936;DHT22;66589;47.458;9.644;2023-04-24T16:52:01;14.60;75.00
38936;DHT22;66589;47.458;9.644;2023-04-24T16:54:28;14.50;75.20
38936;DHT22;66589;47.458;9.644;2023-04-24T16:56:55;14.40;75.90
38936;DHT22;66589;47.458;9.644;2023-04-24T16:59:21;14.30;78.10
38936;DHT22;66589;47.458;9.644;2023-04-24T17:01:48;14.20;77.70
38936;DHT22;66589;47.458;9.644;2023-04-24T17:04:13;14.00;76.50
38936;DHT22;66589;47.458;9.644;2023-04-24T17:06:39;13.90;77.00
38936;DHT22;66589;47.458;9.644;2023-04-24T17:09:05;13.80;77.00
38936;DHT22;66589;47.458;9.644;2023-04-24T17:11:31;13.70;77.60
38936;DHT22;66589;47.458;9.644;2023-04-24T17:13:57;13.50;78.30
38936;DHT22;66589;47.458;9.644;2023-04-24T17:16:24;13.40;78.70
38936;DHT22;66589;47.458;9.644;2023-04-24T17:18:50;13.30;77.70
38936;DHT22;66589;47.458;9.644;2023-04-24T17:21:16;13.10;79.20
38936;DHT22;66589;47.458;9.644;2023-04-24T17:23:41;12.90;79.50
38936;DHT22;66589;47.458;9.644;2023-04-24T17:26:07;12.80;80.50
38936;DHT22;66589;47.458;9.644;2023-04-24T17:28:33;12.70;81.20
38936;DHT22;66589;47.458;9.644;2023-04-24T17:30:59;12.70;81.30
38936;DHT22;66589;47.458;9.644;2023-04-24T17:33:28;12.80;81.00
38936;DHT22;66589;47.458;9.644;2023-04-24T17:35:55;12.70;81.40
38936;DHT22;66589;47.458;9.644;2023-04-24T17:38:21;12.60;82.00
38936;DHT22;66589;47.458;9.644;2023-04-24T17:40:47;12.50;82.30
38936;DHT22;66589;47.458;9.644;2023-04-24T17:43:20;12.30;83.10
38936;DHT22;66589;47.458;9.644;2023-04-24T17:45:51;12.20;83.80
38936;DHT22;66589;47.458;9.644;2023-04-24T17:48:20;12.10;84.20
38936;DHT22;66589;47.458;9.644;2023-04-24T17:50:47;12.10;84.00
38936;DHT22;66589;47.458;9.644;2023-04-24T17:53:13;12.20;84.20
38936;DHT22;66589;47.458;9.644;2023-04-24T17:55:40;12.20;84.10
38936;DHT22;66589;47.458;9.644;2023-04-24T17:58:09;12.30;86.00
38936;DHT22;66589;47.458;9.644;2023-04-24T18:00:35;12.40;86.80
38936;DHT22;66589;47.458;9.644;2023-04-24T18:03:02;12.20;87.20
38936;DHT22;66589;47.458;9.644;2023-04-24T18:05:32;12.20;87.30
38936;DHT22;66589;47.458;9.644;2023-04-24T18:07:59;12.20;83.40
38936;DHT22;66589;47.458;9.644;2023-04-24T18:10:26;12.10;78.10
38936;DHT22;66589;47.458;9.644;2023-04-24T18:12:52;12.00;78.80
38936;DHT22;66589;47.458;9.644;2023-04-24T18:15:19;12.00;79.50
38936;DHT22;66589;47.458;9.644;2023-04-24T18:17:45;11.90;79.80
38936;DHT22;66589;47.458;9.644;2023-04-24T18:20:12;11.90;79.70
38936;DHT22;66589;47.458;9.644;2023-04-24T18:22:38;11.90;78.90
38936;DHT22;66589;47.458;9.644;2023-04-24T18:25:05;11.80;80.70
38936;DHT22;66589;47.458;9.644;2023-04-24T18:27:31;11.70;81.20
38936;DHT22;66589;47.458;9.644;2023-04-24T18:29:57;11.60;81.40
38936;DHT22;66589;47.458;9.644;2023-04-24T18:32:23;11.40;81.00
38936;DHT22;66589;47.458;9.644;2023-04-24T18:34:49;11.30;84.00
38936;DHT22;66589;47.458;9.644;2023-04-24T18:37:15;11.20;85.40
38936;DHT22;66589;47.458;9.644;2023-04-24T18:39:41;11.20;84.30
38936;DHT22;66589;47.458;9.644;2023-04-24T18:42:07;11.10;86.10
38936;DHT22;66589;47.458;9.644;2023-04-24T18:44:33;11.00;87.20
38936;DHT22;66589;47.458;9.644;2023-04-24T18:46:58;10.90;86.70